Rechercher aéroport 
image banner adimage banner adimage banner ad
image banner ad

42CA - John F Kennedy Memorial Hospital

Situé à Indio, United States

ICAO - 42CA, IATA -

Données fournies par Airmate  

Information générale

Coordonnées: N33°42'21" W116°14'12"
Élévation : feet MSL.
Variation magnétique : 13° East
Voir autres Aéroports à California

Données opérationnelles

Special qualification required
Heure actuelle UTC:
Heure actuelle locale:
Météo à : KTRM - Jacqueline Cochran Rgnl ( 11 km )
METAR: KTRM 251252Z AUTO 36004KT 10SM CLR 28/16 A2985 RMK AO2 SLP112 T02780156
TAF: KTRM 251141Z 2512/2612 VRB05KT P6SM BKN120 FM251700 12011G18KT P6SM BKN120 FM252100 15015G23KT P6SM VCTS BKN070CB BKN100 FM260200 14008KT P6SM VCTS BKN060CB BKN100
Voir NOTAMs / SUP AIP / TFR affectant cet aéroport [VIEW]
Fréquences de communication: [VIEW]

Pistes:

Coordonnées de l'aéroport

Adresse: Indio United States

Vue satellite de 42CA